Time;durP1;ratioP1;P1;durP2;ratioP2;P2;SDS_P1;SDS_P2;PMS_P1;PMS_P2;Temp;Humidity;BMP_temperature;BMP_pressure;BME280_temperature;BME280_humidity;BME280_pressure;Samples;Min_cycle;Max_cycle;Signal;HPM_P1;HPM_P2
2021/12/04 00:01:48;;;;;;;20.85;12.60;;;;;;;;;;5058775;27;96879;-74
2021/12/04 00:04:20;;;;;;;20.83;12.15;;;;;;;;;;5052162;27;96749;-73
2021/12/04 00:06:48;;;;;;;22.40;13.15;;;;;;;;;;5056030;27;97526;-74
2021/12/04 00:09:17;;;;;;;20.80;12.43;;;;;;;;;;5066214;27;96845;-74
2021/12/04 00:11:52;;;;;;;21.60;12.73;;;;;;;;;;5071624;27;97348;-74
2021/12/04 00:14:19;;;;;;;23.33;13.15;;;;;;;;;;5072576;27;95118;-74
2021/12/04 00:16:45;;;;;;;20.40;12.35;;;;;;;;;;5072899;27;96795;-74
2021/12/04 00:19:12;;;;;;;26.40;13.68;;;;;;;;;;5065217;27;97391;-73
2021/12/04 00:21:39;;;;;;;23.67;13.50;;;;;;;;;;5068351;27;95266;-74
2021/12/04 00:24:05;;;;;;;25.50;14.20;;;;;;;;;;5063034;27;96884;-74
2021/12/04 00:26:32;;;;;;;28.75;13.98;;;;;;;;;;5071888;27;97321;-74
2021/12/04 00:28:58;;;;;;;26.98;14.18;;;;;;;;;;5072853;27;96172;-74
2021/12/04 00:31:25;;;;;;;26.45;14.20;;;;;;;;;;5055263;27;97330;-74
2021/12/04 00:33:52;;;;;;;27.58;14.70;;;;;;;;;;5065960;27;96318;-73
2021/12/04 00:50:04;;;;;;;26.27;14.68;;;;;;;;;;5074800;27;95236;-72
2021/12/04 00:52:31;;;;;;;30.95;15.55;;;;;;;;;;5070038;27;96796;-73
2021/12/04 00:54:59;;;;;;;29.45;15.43;;;;;;;;;;5074232;27;95089;-72
2021/12/04 00:57:25;;;;;;;30.98;15.90;;;;;;;;;;5075491;27;96872;-72
2021/12/04 00:59:52;;;;;;;28.58;15.27;;;;;;;;;;5074173;27;97005;-72
2021/12/04 01:02:19;;;;;;;24.73;14.43;;;;;;;;;;5074758;27;95106;-71
2021/12/04 01:04:46;;;;;;;25.60;14.73;;;;;;;;;;5074889;27;96877;-72
2021/12/04 01:07:12;;;;;;;28.35;14.63;;;;;;;;;;5065111;27;97478;-72
2021/12/04 01:09:39;;;;;;;29.23;14.63;;;;;;;;;;5058709;27;95429;-72
2021/12/04 01:12:06;;;;;;;27.42;14.85;;;;;;;;;;5076173;27;95903;-73
2021/12/04 01:14:32;;;;;;;24.80;14.02;;;;;;;;;;5074070;27;95545;-72
2021/12/04 01:16:59;;;;;;;26.02;13.73;;;;;;;;;;5075111;27;96780;-72
2021/12/04 01:19:26;;;;;;;23.10;13.23;;;;;;;;;;5061141;27;97587;-72
2021/12/04 01:21:53;;;;;;;24.73;12.10;;;;;;;;;;5071477;27;95144;-72
2021/12/04 01:24:20;;;;;;;22.67;12.73;;;;;;;;;;5073992;27;96736;-72
2021/12/04 01:26:47;;;;;;;22.67;12.35;;;;;;;;;;5054850;27;97310;-72
2021/12/04 01:29:14;;;;;;;25.02;12.63;;;;;;;;;;5069856;27;95683;-72
2021/12/04 01:31:41;;;;;;;27.02;13.52;;;;;;;;;;5063657;27;96854;-72
2021/12/04 01:34:07;;;;;;;28.10;13.30;;;;;;;;;;5072833;27;97803;-72
2021/12/04 01:36:33;;;;;;;25.48;12.50;;;;;;;;;;5074102;27;96738;-72
2021/12/04 01:39:00;;;;;;;27.65;13.90;;;;;;;;;;5074709;27;97804;-72
2021/12/04 01:41:26;;;;;;;23.92;12.48;;;;;;;;;;5072879;27;95253;-72
2021/12/04 01:43:52;;;;;;;25.98;13.20;;;;;;;;;;5073377;27;97029;-72
2021/12/04 01:46:19;;;;;;;28.30;13.20;;;;;;;;;;5074934;27;99223;-71
2021/12/04 01:48:45;;;;;;;26.73;13.63;;;;;;;;;;5073452;27;95142;-74
2021/12/04 01:51:11;;;;;;;26.85;13.85;;;;;;;;;;5074283;27;95691;-73
2021/12/04 01:53:38;;;;;;;32.80;14.75;;;;;;;;;;5073240;27;97422;-73
2021/12/04 01:56:04;;;;;;;28.45;13.93;;;;;;;;;;5077342;27;95304;-73
2021/12/04 01:58:30;;;;;;;28.98;15.10;;;;;;;;;;5061023;27;97350;-73
2021/12/04 02:00:57;;;;;;;33.85;14.65;;;;;;;;;;5053423;27;95128;-71
2021/12/04 02:03:24;;;;;;;31.27;15.05;;;;;;;;;;5053768;27;97232;-72
2021/12/04 02:05:50;;;;;;;31.98;16.08;;;;;;;;;;5054346;27;97382;-72
2021/12/04 02:08:18;;;;;;;36.95;15.82;;;;;;;;;;5063080;27;95314;-72
2021/12/04 02:10:46;;;;;;;39.75;16.92;;;;;;;;;;5074019;27;96845;-72
2021/12/04 02:13:13;;;;;;;34.00;15.52;;;;;;;;;;5067365;27;97260;-72
2021/12/04 02:15:39;;;;;;;41.50;17.05;;;;;;;;;;5068559;27;95222;-72
2021/12/04 02:18:07;;;;;;;37.15;16.75;;;;;;;;;;5077009;27;96865;-73
2021/12/04 02:20:34;;;;;;;39.83;16.73;;;;;;;;;;5073703;27;96909;-72
2021/12/04 02:23:02;;;;;;;40.00;17.08;;;;;;;;;;5073079;27;96699;-72
2021/12/04 02:25:28;;;;;;;46.67;18.25;;;;;;;;;;5069473;27;97324;-72
2021/12/04 02:27:55;;;;;;;43.65;17.85;;;;;;;;;;5071277;27;95199;-72
2021/12/04 02:30:25;;;;;;;47.90;19.17;;;;;;;;;;5053794;27;96746;-72
2021/12/04 02:32:52;;;;;;;53.78;18.95;;;;;;;;;;5065914;27;96282;-72
2021/12/04 02:35:19;;;;;;;47.22;20.15;;;;;;;;;;5054153;27;95288;-73
2021/12/04 02:37:46;;;;;;;51.33;19.33;;;;;;;;;;5053740;27;96706;-72
2021/12/04 02:40:18;;;;;;;58.70;19.80;;;;;;;;;;5059558;27;97504;-71
2021/12/04 02:42:45;;;;;;;51.95;19.88;;;;;;;;;;5074447;27;96823;-72
2021/12/04 02:45:12;;;;;;;53.90;20.10;;;;;;;;;;5073297;27;97416;-71
2021/12/04 02:47:38;;;;;;;61.10;20.08;;;;;;;;;;5073073;27;95348;-71
2021/12/04 02:50:07;;;;;;;53.88;20.50;;;;;;;;;;5069766;27;96769;-72
2021/12/04 02:52:33;;;;;;;54.30;19.50;;;;;;;;;;5070846;27;97287;-72
2021/12/04 02:55:00;;;;;;;66.57;20.20;;;;;;;;;;5072489;27;95325;-72
2021/12/04 02:57:28;;;;;;;60.03;19.65;;;;;;;;;;5053445;27;96772;-72
2021/12/04 02:59:55;;;;;;;69.65;21.40;;;;;;;;;;5052768;27;97528;-72
2021/12/04 03:02:23;;;;;;;65.95;21.10;;;;;;;;;;5070679;27;95084;-72
2021/12/04 03:04:50;;;;;;;66.20;21.25;;;;;;;;;;5073797;27;97412;-72
2021/12/04 03:07:17;;;;;;;54.83;19.85;;;;;;;;;;5054838;27;95385;-72
2021/12/04 03:09:49;;;;;;;72.03;21.98;;;;;;;;;;5052971;27;95755;-71
2021/12/04 03:12:16;;;;;;;73.72;20.27;;;;;;;;;;5053117;27;97288;-71
2021/12/04 03:14:42;;;;;;;63.08;21.38;;;;;;;;;;5056769;27;95479;-71
2021/12/04 03:17:08;;;;;;;79.65;22.55;;;;;;;;;;5072382;27;97185;-72
2021/12/04 03:19:37;;;;;;;72.18;22.38;;;;;;;;;;5072440;27;97365;-72
2021/12/04 03:22:03;;;;;;;85.60;23.88;;;;;;;;;;5076450;27;95170;-72
2021/12/04 03:24:31;;;;;;;81.55;23.00;;;;;;;;;;5073043;27;97353;-72
2021/12/04 03:26:58;;;;;;;76.13;22.63;;;;;;;;;;5062993;27;95762;-72
2021/12/04 03:29:25;;;;;;;78.82;22.50;;;;;;;;;;5071272;27;95351;-72
2021/12/04 03:32:14;;;;;;;78.07;22.73;;;;;;;;;;5066192;27;97802;-72
2021/12/04 03:40:36;;;;;;;101.28;22.65;;;;;;;;;;5072543;27;97205;-72
2021/12/04 03:43:04;;;;;;;105.38;24.98;;;;;;;;;;5073060;27;95264;-72
2021/12/04 03:45:32;;;;;;;98.68;25.70;;;;;;;;;;5076230;27;96693;-72
2021/12/04 03:48:07;;;;;;;182.07;26.73;;;;;;;;;;5064729;27;97200;-72
2021/12/04 03:50:34;;;;;;;95.53;22.85;;;;;;;;;;5069602;27;96814;-74
2021/12/04 03:53:00;;;;;;;108.95;23.55;;;;;;;;;;5073498;27;97277;-72
2021/12/04 03:55:27;;;;;;;128.45;26.48;;;;;;;;;;5070914;27;95215;-72
2021/12/04 03:57:53;;;;;;;147.15;26.02;;;;;;;;;;5056045;27;96631;-72
2021/12/04 04:00:20;;;;;;;164.23;26.15;;;;;;;;;;5058215;27;97340;-72
2021/12/04 04:02:46;;;;;;;96.43;24.40;;;;;;;;;;5052519;27;95300;-75
2021/12/04 04:05:12;;;;;;;89.85;23.67;;;;;;;;;;5067806;27;96705;-74
2021/12/04 04:07:39;;;;;;;110.55;23.77;;;;;;;;;;5071902;27;97762;-74
2021/12/04 04:10:06;;;;;;;103.40;24.30;;;;;;;;;;5051844;27;97000;-75
2021/12/04 04:12:32;;;;;;;132.30;24.55;;;;;;;;;;5053894;27;97357;-74
2021/12/04 04:14:59;;;;;;;107.63;23.92;;;;;;;;;;5059721;27;95279;-75
2021/12/04 04:17:30;;;;;;;126.70;25.70;;;;;;;;;;5060514;27;97204;-74
2021/12/04 04:19:57;;;;;;;147.93;25.97;;;;;;;;;;5052144;27;97275;-73
2021/12/04 04:22:23;;;;;;;125.57;23.65;;;;;;;;;;5052113;27;95026;-74
2021/12/04 04:24:49;;;;;;;114.88;23.77;;;;;;;;;;5051920;27;96470;-74
2021/12/04 04:27:15;;;;;;;160.60;26.25;;;;;;;;;;5052945;27;97225;-73
2021/12/04 04:29:42;;;;;;;177.55;26.35;;;;;;;;;;5062153;27;95243;-74
2021/12/04 04:32:08;;;;;;;155.55;25.30;;;;;;;;;;5071988;27;97463;-74
2021/12/04 04:34:37;;;;;;;161.02;26.90;;;;;;;;;;5072679;27;95014;-74
2021/12/04 04:37:17;;;;;;;128.68;25.33;;;;;;;;;;5067968;27;97152;-73
2021/12/04 04:40:17;;;;;;;156.45;26.63;;;;;;;;;;5053402;27;97648;-73
2021/12/04 05:01:58;;;;;;;193.55;28.05;;;;;;;;;;5071406;27;97549;-73
2021/12/04 05:12:55;;;;;;;156.00;26.42;;;;;;;;;;5071448;27;96243;-73
2021/12/04 05:15:45;;;;;;;241.55;29.73;;;;;;;;;;5072200;27;96766;-73
2021/12/04 05:18:31;;;;;;;185.25;25.58;;;;;;;;;;5072428;27;95154;-73
2021/12/04 05:21:04;;;;;;;165.05;27.20;;;;;;;;;;5073457;27;96822;-73
2021/12/04 05:23:32;;;;;;;234.52;26.88;;;;;;;;;;5075562;27;97280;-73
2021/12/04 05:25:59;;;;;;;201.85;27.10;;;;;;;;;;5075747;27;95281;-73
2021/12/04 05:28:26;;;;;;;165.93;26.65;;;;;;;;;;5073860;27;96999;-74
2021/12/04 05:30:53;;;;;;;230.88;29.10;;;;;;;;;;5060691;27;97944;-74
2021/12/04 05:33:20;;;;;;;204.75;27.08;;;;;;;;;;5067962;27;95388;-73
2021/12/04 05:35:48;;;;;;;144.23;25.95;;;;;;;;;;5071799;27;96858;-73
2021/12/04 05:38:15;;;;;;;215.82;28.58;;;;;;;;;;5071770;27;97227;-73
2021/12/04 05:40:42;;;;;;;230.27;28.35;;;;;;;;;;5057279;27;96647;-74
2021/12/04 05:43:09;;;;;;;175.20;26.20;;;;;;;;;;5053914;27;97624;-74
2021/12/04 05:45:43;;;;;;;280.90;29.80;;;;;;;;;;5054891;27;95315;-73
2021/12/04 05:48:22;;;;;;;170.00;26.23;;;;;;;;;;5067450;27;95754;-73
2021/12/04 05:53:18;;;;;;;226.70;28.88;;;;;;;;;;5074951;27;95323;-74
2021/12/04 05:58:19;;;;;;;278.35;28.58;;;;;;;;;;5061541;27;97340;-73
2021/12/04 06:00:45;;;;;;;194.00;26.63;;;;;;;;;;5071573;27;95195;-73
2021/12/04 06:03:12;;;;;;;212.98;28.75;;;;;;;;;;5073778;27;97389;-74
2021/12/04 06:05:39;;;;;;;259.30;28.73;;;;;;;;;;5061861;27;95315;-73
2021/12/04 06:08:08;;;;;;;211.90;27.35;;;;;;;;;;5072489;27;96043;-74
2021/12/04 06:10:34;;;;;;;228.68;27.15;;;;;;;;;;5058103;27;97204;-73
2021/12/04 06:13:01;;;;;;;232.30;27.08;;;;;;;;;;5067153;27;95289;-73
2021/12/04 06:15:27;;;;;;;123.05;25.05;;;;;;;;;;5074705;27;96743;-73
2021/12/04 06:17:55;;;;;;;224.55;28.27;;;;;;;;;;5062800;27;97311;-73
2021/12/04 06:23:07;;;;;;;214.38;28.10;;;;;;;;;;5060604;27;96770;-74
2021/12/04 06:25:33;;;;;;;255.73;28.75;;;;;;;;;;5052700;27;95380;-73
2021/12/04 06:28:00;;;;;;;229.27;28.10;;;;;;;;;;5060726;27;96786;-74
2021/12/04 06:30:26;;;;;;;245.30;28.88;;;;;;;;;;5072043;27;96109;-74
2021/12/04 06:32:53;;;;;;;294.70;31.27;;;;;;;;;;5069976;27;95362;-74
2021/12/04 06:35:21;;;;;;;177.65;26.83;;;;;;;;;;5072054;27;96864;-74
2021/12/04 06:37:50;;;;;;;147.48;25.92;;;;;;;;;;5072861;27;97385;-74
2021/12/04 06:40:18;;;;;;;234.77;30.00;;;;;;;;;;5073510;27;95164;-74
2021/12/04 06:42:45;;;;;;;290.13;29.52;;;;;;;;;;5072098;27;97354;-75
2021/12/04 06:45:12;;;;;;;238.27;28.77;;;;;;;;;;5059687;27;97374;-74
2021/12/04 06:47:45;;;;;;;148.20;25.48;;;;;;;;;;5066545;27;96865;-75
2021/12/04 06:50:19;;;;;;;114.85;23.50;;;;;;;;;;5064770;27;97370;-74
2021/12/04 06:52:47;;;;;;;259.73;28.35;;;;;;;;;;5072665;27;95387;-75
2021/12/04 06:55:16;;;;;;;220.00;29.52;;;;;;;;;;5072894;27;96648;-75
2021/12/04 06:57:44;;;;;;;220.38;26.95;;;;;;;;;;5072805;27;97383;-75
2021/12/04 07:00:11;;;;;;;199.38;26.88;;;;;;;;;;5072546;27;95211;-75
2021/12/04 07:02:37;;;;;;;212.40;28.45;;;;;;;;;;5072042;27;96848;-75
2021/12/04 07:05:04;;;;;;;170.73;26.90;;;;;;;;;;5062502;27;98186;-75
2021/12/04 07:07:30;;;;;;;218.60;28.58;;;;;;;;;;5055648;27;95561;-75
2021/12/04 07:09:57;;;;;;;197.55;27.05;;;;;;;;;;5070266;27;97365;-74
2021/12/04 07:12:24;;;;;;;166.93;26.88;;;;;;;;;;5072983;27;95224;-75
2021/12/04 07:14:51;;;;;;;180.55;27.60;;;;;;;;;;5069499;27;97506;-75
2021/12/04 07:17:17;;;;;;;168.50;26.40;;;;;;;;;;5071808;27;97349;-75
2021/12/04 07:19:43;;;;;;;157.30;27.52;;;;;;;;;;5053882;27;96323;-74
2021/12/04 07:22:11;;;;;;;150.57;26.25;;;;;;;;;;5052164;27;96800;-75
2021/12/04 07:24:37;;;;;;;165.40;26.90;;;;;;;;;;5058779;27;97676;-75
2021/12/04 07:27:05;;;;;;;147.65;26.35;;;;;;;;;;5063701;27;95417;-75
2021/12/04 07:29:31;;;;;;;151.10;26.77;;;;;;;;;;5057734;27;97203;-75
2021/12/04 07:31:58;;;;;;;105.90;24.60;;;;;;;;;;5071174;27;95203;-75
2021/12/04 07:34:24;;;;;;;179.63;28.27;;;;;;;;;;5071463;27;97479;-74
2021/12/04 07:36:50;;;;;;;298.00;30.83;;;;;;;;;;5071691;27;97805;-74
2021/12/04 07:39:17;;;;;;;198.57;27.05;;;;;;;;;;5060202;27;95335;-74
2021/12/04 07:41:43;;;;;;;189.82;27.27;;;;;;;;;;5065394;27;96782;-81
2021/12/04 07:44:10;;;;;;;181.95;28.77;;;;;;;;;;5070532;27;97255;-73
2021/12/04 07:46:37;;;;;;;366.50;34.65;;;;;;;;;;5071856;27;95478;-73
2021/12/04 07:49:04;;;;;;;207.20;29.33;;;;;;;;;;5074589;27;96879;-73
2021/12/04 07:51:30;;;;;;;109.38;24.70;;;;;;;;;;5070963;27;95114;-73
2021/12/04 07:53:57;;;;;;;152.23;28.25;;;;;;;;;;5072935;27;99277;-72
2021/12/04 07:56:23;;;;;;;105.53;24.63;;;;;;;;;;5059257;27;97358;-73
2021/12/04 07:58:50;;;;;;;155.73;26.92;;;;;;;;;;5067273;27;95309;-73
2021/12/04 08:01:17;;;;;;;166.77;26.85;;;;;;;;;;5072011;27;95927;-73
2021/12/04 08:03:43;;;;;;;151.65;25.80;;;;;;;;;;5070245;27;96632;-73
2021/12/04 08:06:10;;;;;;;159.88;27.15;;;;;;;;;;5066833;27;95256;-73
2021/12/04 08:08:36;;;;;;;203.95;27.17;;;;;;;;;;5063659;27;97141;-73
2021/12/04 14:54:26;;;;;;;90.55;25.75;;;;;;;;;;5079979;27;95668;-73
2021/12/04 14:56:52;;;;;;;;;;;;;;;;;;5067859;27;97581;-75
2021/12/04 14:59:18;;;;;;;109.93;27.58;;;;;;;;;;5065898;27;118270;-73
2021/12/04 15:01:45;;;;;;;104.40;27.52;;;;;;;;;;5065927;27;96913;-73
2021/12/04 15:04:11;;;;;;;99.63;26.15;;;;;;;;;;5065400;27;97247;-74
2021/12/04 15:06:40;;;;;;;70.43;25.55;;;;;;;;;;5067516;27;95716;-74
2021/12/04 15:09:10;;;;;;;87.22;24.38;;;;;;;;;;5066387;27;96990;-74
2021/12/04 15:11:37;;;;;;;70.15;23.50;;;;;;;;;;5065629;27;97445;-73
2021/12/04 15:14:10;;;;;;;73.45;21.88;;;;;;;;;;5075835;27;95449;-75
2021/12/04 15:16:45;;;;;;;48.65;17.90;;;;;;;;;;5064951;27;97259;-74
2021/12/04 15:19:20;;;;;;;46.92;17.08;;;;;;;;;;5065493;27;95158;-73
2021/12/04 15:21:56;;;;;;;49.92;18.20;;;;;;;;;;5067196;27;96953;-74
2021/12/04 15:24:25;;;;;;;56.78;18.58;;;;;;;;;;5066128;27;97356;-74
2021/12/04 15:26:55;;;;;;;37.97;14.65;;;;;;;;;;5064687;27;95249;-74
2021/12/04 15:29:23;;;;;;;37.13;14.15;;;;;;;;;;5067325;27;96289;-73
2021/12/04 15:31:51;;;;;;;31.02;12.55;;;;;;;;;;5064648;27;97293;-74
2021/12/04 15:34:27;;;;;;;26.05;10.10;;;;;;;;;;5066774;27;95318;-74
2021/12/04 15:36:54;;;;;;;29.60;10.45;;;;;;;;;;5070168;27;95873;-74
2021/12/04 15:39:37;;;;;;;19.92;8.05;;;;;;;;;;5066126;27;95155;-74
2021/12/04 15:42:23;;;;;;;26.42;9.88;;;;;;;;;;5067949;27;96872;-74
2021/12/04 15:45:05;;;;;;;22.85;9.82;;;;;;;;;;5067419;27;97234;-74
2021/12/04 15:47:44;;;;;;;30.52;12.23;;;;;;;;;;5066738;27;95917;-74
2021/12/04 15:55:20;;;;;;;34.10;13.07;;;;;;;;;;5087488;27;117659;-73
2021/12/04 15:58:00;;;;;;;65.30;24.65;;;;;;;;;;5079426;27;96767;-74
2021/12/04 16:00:30;;;;;;;62.50;21.70;;;;;;;;;;5090189;27;97346;-74
2021/12/04 16:02:58;;;;;;;41.72;15.85;;;;;;;;;;5087416;27;96740;-74
2021/12/04 16:05:26;;;;;;;35.53;13.75;;;;;;;;;;5074856;27;97127;-74
2021/12/04 16:08:07;;;;;;;36.92;13.55;;;;;;;;;;5043117;27;95286;-73
2021/12/04 16:10:34;;;;;;;31.52;11.20;;;;;;;;;;5074290;27;96771;-74
2021/12/04 16:13:02;;;;;;;35.00;9.80;;;;;;;;;;5073908;27;97328;-74
2021/12/04 16:15:29;;;;;;;36.90;11.95;;;;;;;;;;5073462;27;95317;-74
2021/12/04 16:17:55;;;;;;;36.20;12.35;;;;;;;;;;5073742;27;96688;-73
2021/12/04 16:20:23;;;;;;;43.20;12.55;;;;;;;;;;5074272;27;97278;-74
2021/12/04 16:22:51;;;;;;;34.67;10.32;;;;;;;;;;5076863;27;95398;-74
2021/12/04 16:25:20;;;;;;;31.23;10.70;;;;;;;;;;5073061;27;97318;-75
2021/12/04 16:33:11;;;;;;;44.90;13.32;;;;;;;;;;5073701;27;97323;-75
2021/12/04 16:35:43;;;;;;;46.47;13.90;;;;;;;;;;5059973;27;95154;-75
2021/12/04 16:38:11;;;;;;;44.28;14.38;;;;;;;;;;5073628;27;96669;-74
2021/12/04 16:40:39;;;;;;;45.67;13.20;;;;;;;;;;5074153;27;96033;-74
2021/12/04 16:43:13;;;;;;;49.50;14.00;;;;;;;;;;5073761;27;95358;-73
2021/12/04 16:45:44;;;;;;;42.90;13.63;;;;;;;;;;5076748;27;96809;-73
2021/12/04 16:48:12;;;;;;;45.00;14.10;;;;;;;;;;5073546;27;95315;-73
2021/12/04 16:59:04;;;;;;;33.83;11.88;;;;;;;;;;5073051;27;97433;-76
2021/12/04 17:01:31;;;;;;;37.70;11.98;;;;;;;;;;5073796;27;97221;-73
2021/12/04 17:03:57;;;;;;;36.47;11.45;;;;;;;;;;5072544;27;95401;-73
2021/12/04 17:06:24;;;;;;;39.10;11.75;;;;;;;;;;5054277;27;97116;-73
2021/12/04 17:08:50;;;;;;;36.40;11.45;;;;;;;;;;5075134;27;95364;-74
2021/12/04 17:11:17;;;;;;;35.53;11.75;;;;;;;;;;5072760;27;96881;-72
2021/12/04 17:13:43;;;;;;;36.00;12.70;;;;;;;;;;5073140;27;97359;-73
2021/12/04 17:16:13;;;;;;;33.25;13.27;;;;;;;;;;5071651;27;95509;-73
2021/12/04 17:18:46;;;;;;;43.47;13.02;;;;;;;;;;5072212;27;96722;-73
2021/12/04 17:21:13;;;;;;;45.53;13.02;;;;;;;;;;5072835;27;97370;-73
2021/12/04 17:23:39;;;;;;;35.45;11.30;;;;;;;;;;5071714;27;96044;-73
2021/12/04 17:26:06;;;;;;;31.83;10.75;;;;;;;;;;5070839;27;96918;-73
2021/12/04 17:28:36;;;;;;;31.67;9.70;;;;;;;;;;5057786;27;97560;-73
2021/12/04 17:31:08;;;;;;;35.08;10.77;;;;;;;;;;5073870;27;96759;-73
2021/12/04 17:33:34;;;;;;;25.45;10.00;;;;;;;;;;5072356;27;97689;-73
2021/12/04 17:36:01;;;;;;;20.42;9.13;;;;;;;;;;5072977;27;95314;-73
2021/12/04 17:38:27;;;;;;;32.00;10.45;;;;;;;;;;5073337;27;97164;-73
2021/12/04 17:40:54;;;;;;;24.00;9.15;;;;;;;;;;5071916;27;97516;-75
2021/12/04 17:43:20;;;;;;;27.75;8.88;;;;;;;;;;5074304;27;96140;-73
2021/12/04 17:45:46;;;;;;;21.92;8.63;;;;;;;;;;5073369;27;96877;-74
2021/12/04 17:48:13;;;;;;;21.90;8.75;;;;;;;;;;5073406;27;97479;-73
2021/12/04 17:50:42;;;;;;;30.83;8.80;;;;;;;;;;5076858;27;95199;-75
2021/12/04 17:53:09;;;;;;;30.40;8.68;;;;;;;;;;5072336;27;97366;-74
2021/12/04 17:55:35;;;;;;;33.13;9.30;;;;;;;;;;5073236;27;95028;-74
2021/12/04 17:58:02;;;;;;;23.92;8.50;;;;;;;;;;5072991;27;96933;-75
2021/12/04 18:00:33;;;;;;;17.08;7.88;;;;;;;;;;5072842;27;97398;-75
2021/12/04 18:03:01;;;;;;;19.73;7.83;;;;;;;;;;5074116;27;95168;-74
2021/12/04 18:05:29;;;;;;;25.45;7.75;;;;;;;;;;5073338;27;97221;-74
2021/12/04 18:07:56;;;;;;;17.25;7.25;;;;;;;;;;5072796;27;97305;-74
2021/12/04 18:10:24;;;;;;;15.57;6.05;;;;;;;;;;5073225;27;95319;-74
2021/12/04 18:12:52;;;;;;;22.33;5.93;;;;;;;;;;5075818;27;96788;-75
2021/12/04 18:15:21;;;;;;;18.77;6.80;;;;;;;;;;5072014;27;95392;-74
2021/12/04 18:17:48;;;;;;;14.05;6.72;;;;;;;;;;5073248;27;96763;-75
2021/12/04 18:20:14;;;;;;;18.08;6.13;;;;;;;;;;5072825;27;97377;-74
2021/12/04 18:22:40;;;;;;;18.60;6.10;;;;;;;;;;5072650;27;95087;-74
2021/12/04 18:25:07;;;;;;;16.88;5.93;;;;;;;;;;5072624;27;97141;-75
2021/12/04 18:27:35;;;;;;;16.33;5.47;;;;;;;;;;5072350;27;97367;-74
2021/12/04 18:30:07;;;;;;;17.27;5.60;;;;;;;;;;5072871;27;95353;-75
2021/12/04 18:32:33;;;;;;;20.88;5.28;;;;;;;;;;5072854;27;96733;-74
2021/12/04 18:35:01;;;;;;;16.67;4.97;;;;;;;;;;5076141;27;97310;-74
2021/12/04 18:37:27;;;;;;;23.08;5.20;;;;;;;;;;5072994;27;96918;-74
2021/12/04 18:39:54;;;;;;;17.25;6.07;;;;;;;;;;5052085;27;97943;-74
2021/12/04 18:42:20;;;;;;;15.43;5.45;;;;;;;;;;5071898;27;95289;-74
2021/12/04 18:44:46;;;;;;;22.38;5.60;;;;;;;;;;5073244;27;96736;-74
2021/12/04 18:47:13;;;;;;;25.95;5.40;;;;;;;;;;5068487;27;97802;-74
2021/12/04 18:49:48;;;;;;;20.52;5.72;;;;;;;;;;5077623;27;95763;-74
2021/12/04 18:52:14;;;;;;;19.25;5.72;;;;;;;;;;5070653;27;96900;-75
2021/12/04 18:54:41;;;;;;;13.52;4.90;;;;;;;;;;5070062;27;97764;-75
2021/12/04 18:57:08;;;;;;;18.90;5.43;;;;;;;;;;5055589;27;95827;-74
2021/12/04 18:59:37;;;;;;;18.42;4.90;;;;;;;;;;5070191;27;96726;-74
2021/12/04 19:02:05;;;;;;;15.18;3.67;;;;;;;;;;5071307;27;95307;-76
2021/12/04 19:04:32;;;;;;;18.23;4.20;;;;;;;;;;5070185;27;96824;-74
2021/12/04 19:06:59;;;;;;;11.50;3.75;;;;;;;;;;5070612;27;97387;-74
2021/12/04 19:09:26;;;;;;;11.65;3.88;;;;;;;;;;5068822;27;95264;-74
2021/12/04 19:11:59;;;;;;;15.85;3.60;;;;;;;;;;5052430;27;97140;-74
2021/12/04 19:14:25;;;;;;;19.38;4.15;;;;;;;;;;5070576;27;97806;-74
2021/12/04 19:16:52;;;;;;;18.85;3.92;;;;;;;;;;5072370;27;95438;-74
2021/12/04 19:19:20;;;;;;;15.35;4.70;;;;;;;;;;5068605;27;97413;-74
2021/12/04 19:21:46;;;;;;;18.77;4.85;;;;;;;;;;5070800;27;96042;-74
2021/12/04 19:24:20;;;;;;;14.32;5.20;;;;;;;;;;5069332;27;96813;-74
2021/12/04 19:26:46;;;;;;;20.80;4.72;;;;;;;;;;5069879;27;97273;-74
2021/12/04 19:29:19;;;;;;;18.50;5.35;;;;;;;;;;5048777;27;95372;-74
2021/12/04 19:31:56;;;;;;;14.55;4.60;;;;;;;;;;5069925;27;97048;-74
2021/12/04 19:34:42;;;;;;;18.00;4.07;;;;;;;;;;5070240;27;97245;-74
2021/12/04 19:50:47;;;;;;;20.70;4.82;;;;;;;;;;5073478;27;95267;-74
2021/12/04 19:55:49;;;;;;;14.65;4.30;;;;;;;;;;5056888;27;97230;-74
2021/12/04 19:58:22;;;;;;;18.00;4.63;;;;;;;;;;5073419;27;96360;-74
2021/12/04 20:00:55;;;;;;;14.10;4.95;;;;;;;;;;5072208;27;96976;-73
2021/12/04 20:03:34;;;;;;;15.50;4.53;;;;;;;;;;5068449;27;97306;-74
2021/12/04 20:06:16;;;;;;;22.85;4.05;;;;;;;;;;5073087;27;96773;-74
2021/12/04 20:14:07;;;;;;;17.15;4.82;;;;;;;;;;5072653;27;97098;-74
2021/12/04 20:16:36;;;;;;;15.07;4.40;;;;;;;;;;5072120;27;98273;-74
2021/12/04 20:19:08;;;;;;;18.20;4.13;;;;;;;;;;5037794;27;95500;-74
2021/12/04 20:21:43;;;;;;;14.95;2.95;;;;;;;;;;5053077;27;96911;-75
2021/12/04 20:24:10;;;;;;;11.18;3.28;;;;;;;;;;5065236;27;97528;-74
2021/12/04 20:26:43;;;;;;;10.20;2.90;;;;;;;;;;5077294;27;95344;-75
2021/12/04 20:29:25;;;;;;;16.13;3.80;;;;;;;;;;5073695;27;97370;-74
2021/12/04 20:37:59;;;;;;;13.43;3.60;;;;;;;;;;5029229;27;98146;-74
2021/12/04 20:40:44;;;;;;;12.63;3.33;;;;;;;;;;5053937;27;96342;-74
2021/12/04 21:11:12;;;;;;;15.30;3.53;;;;;;;;;;5072310;27;96213;-74
2021/12/04 21:51:18;;;;;;;16.25;4.75;;;;;;;;;;5063280;27;98167;-74
2021/12/04 21:53:44;;;;;;;20.15;4.93;;;;;;;;;;5073166;27;95338;-73
2021/12/04 22:09:24;;;;;;;16.15;4.10;;;;;;;;;;5053195;27;97156;-74
2021/12/04 22:20:02;;;;;;;19.83;5.53;;;;;;;;;;5072030;27;97268;-74
2021/12/04 22:58:16;;;;;;;26.73;7.28;;;;;;;;;;5072704;27;96653;-74
2021/12/04 23:00:44;;;;;;;22.25;7.90;;;;;;;;;;5073211;27;96848;-75
2021/12/04 23:03:28;;;;;;;29.00;7.57;;;;;;;;;;5071383;27;97240;-74
2021/12/04 23:11:37;;;;;;;29.60;8.32;;;;;;;;;;5071540;27;97627;-74
2021/12/04 23:14:03;;;;;;;29.75;9.07;;;;;;;;;;5076391;27;95191;-75
2021/12/04 23:16:56;;;;;;;26.98;9.75;;;;;;;;;;5076140;27;98405;-74
2021/12/04 23:32:17;;;;;;;35.95;11.55;;;;;;;;;;5075846;27;97346;-74
2021/12/04 23:44:02;;;;;;;42.25;12.43;;;;;;;;;;5046809;27;96980;-74
2021/12/04 23:49:46;;;;;;;38.72;11.73;;;;;;;;;;5074446;27;95299;-75
2021/12/04 23:52:50;;;;;;;28.60;11.43;;;;;;;;;;5073934;27;97003;-75
